Time;durP1;ratioP1;P1;durP2;ratioP2;P2;SDS_P1;SDS_P2;PMS_P1;PMS_P2;Temp;Humidity;BMP_temperature;BMP_pressure;BME280_temperature;BME280_humidity;BME280_pressure;Samples;Min_cycle;Max_cycle;Signal;HPM_P1;HPM_P2
2022/04/04 00:02:26;;;;;;;10.90;7.50;;;;;;;4.47;62.74;100584.41;5013958;28;20049;-49
2022/04/04 00:04:53;;;;;;;9.80;7.75;;;;;;;4.43;63.15;100588.81;5013069;28;20046;-50
2022/04/04 00:07:21;;;;;;;9.45;7.85;;;;;;;4.40;63.29;100592.09;5014939;28;20061;-49
2022/04/04 00:09:48;;;;;;;9.90;8.57;;;;;;;4.37;63.19;100589.91;5015057;28;20054;-50
2022/04/04 00:12:16;;;;;;;8.95;8.05;;;;;;;4.35;63.65;100578.31;5013039;28;20054;-50
2022/04/04 00:14:45;;;;;;;8.73;7.82;;;;;;;4.32;63.46;100586.28;5014127;28;20049;-49
2022/04/04 00:17:12;;;;;;;8.65;7.75;;;;;;;4.31;63.52;100579.13;5005957;28;20054;-51
2022/04/04 00:19:40;;;;;;;12.52;8.75;;;;;;;4.24;63.64;100582.09;4998168;28;20065;-52
2022/04/04 00:22:07;;;;;;;9.88;8.57;;;;;;;4.27;63.53;100573.31;5010459;28;20058;-49
2022/04/04 00:24:38;;;;;;;10.35;8.85;;;;;;;4.23;63.65;100574.94;4995168;28;20130;-51
2022/04/04 00:27:05;;;;;;;10.80;8.73;;;;;;;4.21;63.94;100571.63;4995204;28;20375;-49
2022/04/04 00:29:33;;;;;;;10.40;9.02;;;;;;;4.19;64.23;100571.06;4994915;28;20062;-49
2022/04/04 00:32:02;;;;;;;8.93;7.65;;;;;;;4.19;64.00;100566.38;5009642;28;20054;-51
2022/04/04 00:34:29;;;;;;;11.23;7.88;;;;;;;4.16;63.69;100566.09;5007316;28;20057;-50
2022/04/04 00:36:56;;;;;;;11.95;9.23;;;;;;;4.07;64.64;100557.50;4994960;28;20065;-49
2022/04/04 00:39:26;;;;;;;11.77;9.32;;;;;;;4.05;64.17;100560.56;4994370;28;20062;-50
2022/04/04 00:41:53;;;;;;;9.93;8.48;;;;;;;4.06;64.46;100556.69;4995307;28;20050;-52
2022/04/04 00:44:20;;;;;;;9.90;8.65;;;;;;;4.07;64.33;100547.31;5011208;28;20054;-49
2022/04/04 00:46:48;;;;;;;11.68;8.43;;;;;;;4.01;64.52;100551.16;5012496;28;20479;-51
2022/04/04 00:49:17;;;;;;;9.82;8.25;;;;;;;4.01;64.66;100542.88;4998271;28;20073;-49
2022/04/04 00:51:44;;;;;;;10.27;8.20;;;;;;;4.02;64.30;100541.78;4994369;28;20073;-49
2022/04/04 00:54:13;;;;;;;10.57;8.65;;;;;;;3.98;64.24;100542.59;4996035;28;20054;-49
2022/04/04 00:56:40;;;;;;;10.20;8.20;;;;;;;3.98;64.15;100537.06;4998342;28;20050;-50
2022/04/04 00:59:10;;;;;;;9.70;8.68;;;;;;;3.96;64.18;100533.75;5006212;28;20061;-49
2022/04/04 01:01:38;;;;;;;11.85;9.75;;;;;;;3.95;64.27;100532.94;5000715;28;20060;-50
2022/04/04 01:04:06;;;;;;;10.18;8.73;;;;;;;3.89;64.71;100531.25;5011502;28;20050;-51
2022/04/04 01:06:36;;;;;;;9.38;8.10;;;;;;;3.90;64.40;100527.38;5013234;28;20057;-49
2022/04/04 01:09:03;;;;;;;11.45;9.25;;;;;;;3.92;64.73;100527.94;5012015;28;20054;-54
2022/04/04 01:11:31;;;;;;;11.20;9.98;;;;;;;3.96;64.59;100529.06;5013655;28;20061;-51
2022/04/04 01:13:59;;;;;;;12.30;10.07;;;;;;;3.99;64.85;100511.16;5013484;28;20053;-51
2022/04/04 01:16:26;;;;;;;10.65;9.00;;;;;;;4.06;65.22;100518.09;5012549;28;20463;-52
2022/04/04 01:18:53;;;;;;;11.10;9.60;;;;;;;4.13;64.19;100509.56;5009437;28;20451;-49
2022/04/04 01:21:21;;;;;;;10.50;9.40;;;;;;;4.16;64.32;100505.44;5013058;28;20053;-51
2022/04/04 01:23:50;;;;;;;11.52;9.05;;;;;;;4.22;63.96;100501.59;5013481;28;20065;-49
2022/04/04 01:26:20;;;;;;;10.27;9.20;;;;;;;4.18;63.79;100498.56;5007694;28;20042;-49
2022/04/04 01:28:47;;;;;;;10.02;8.77;;;;;;;4.16;63.59;100497.16;5006270;28;20058;-49
2022/04/04 01:31:14;;;;;;;11.55;9.40;;;;;;;4.16;64.20;100499.91;5012786;28;20054;-50
2022/04/04 01:33:42;;;;;;;10.80;9.43;;;;;;;4.18;64.11;100495.81;5012273;28;20058;-50
2022/04/04 01:36:09;;;;;;;11.40;10.20;;;;;;;4.17;63.66;100488.63;5003259;28;20050;-49
2022/04/04 01:38:36;;;;;;;10.32;9.23;;;;;;;4.24;63.70;100491.97;4993586;28;20054;-50
2022/04/04 01:41:06;;;;;;;12.13;9.38;;;;;;;4.26;63.92;100489.78;5013443;28;20049;-49
2022/04/04 01:43:35;;;;;;;13.20;11.77;;;;;;;4.12;64.54;100490.56;4996077;28;20471;-50
2022/04/04 01:48:47;;;;;;;12.05;10.45;;;;;;;4.23;63.83;100484.78;5018212;28;20521;-49
2022/04/04 01:51:14;;;;;;;12.35;9.98;;;;;;;4.18;64.13;100490.31;5013340;28;20061;-49
2022/04/04 01:53:41;;;;;;;11.43;10.25;;;;;;;4.19;64.27;100480.09;5013268;28;20052;-49
2022/04/04 01:56:09;;;;;;;12.75;10.25;;;;;;;4.23;63.63;100472.94;5012870;28;20061;-49
2022/04/04 01:58:39;;;;;;;13.10;11.70;;;;;;;4.23;64.40;100472.94;5012942;28;20058;-52
2022/04/04 02:01:10;;;;;;;11.40;9.85;;;;;;;4.18;64.34;100467.41;5011600;28;20060;-52
2022/04/04 02:03:38;;;;;;;12.85;10.45;;;;;;;4.19;64.01;100461.63;5012319;28;20046;-51
2022/04/04 02:06:07;;;;;;;10.70;9.53;;;;;;;4.26;63.95;100459.44;5007258;28;20054;-50
2022/04/04 02:08:35;;;;;;;11.65;9.80;;;;;;;4.26;63.90;100453.09;4993178;28;20477;-52
2022/04/04 02:11:04;;;;;;;10.85;9.75;;;;;;;4.19;64.47;100456.09;5004256;28;20073;-50
2022/04/04 02:13:31;;;;;;;11.40;9.70;;;;;;;4.04;65.02;100454.13;5012333;28;20375;-52
2022/04/04 02:16:02;;;;;;;14.70;10.00;;;;;;;4.07;65.11;100447.25;5012382;28;20053;-50
2022/04/04 02:18:29;;;;;;;12.68;10.02;;;;;;;4.05;64.77;100450.31;5012677;28;20076;-50
2022/04/04 02:20:57;;;;;;;10.80;8.98;;;;;;;4.09;64.68;100433.22;5012106;28;20058;-53
2022/04/04 02:23:25;;;;;;;12.32;10.18;;;;;;;3.96;65.17;100434.56;5012645;28;20514;-49
2022/04/04 02:25:55;;;;;;;11.93;9.20;;;;;;;3.97;65.04;100426.03;5012968;28;20060;-51
2022/04/04 02:28:23;;;;;;;12.25;10.10;;;;;;;3.89;65.42;100420.22;5012600;28;20057;-50
2022/04/04 02:30:51;;;;;;;10.30;9.20;;;;;;;3.88;65.26;100419.38;5011662;28;20061;-55
2022/04/04 02:33:21;;;;;;;12.48;10.60;;;;;;;3.79;65.82;100408.06;5012684;28;20066;-50
2022/04/04 02:35:50;;;;;;;13.60;10.25;;;;;;;3.84;65.12;100407.22;5012138;28;20065;-49
2022/04/04 02:38:18;;;;;;;12.82;10.35;;;;;;;3.76;66.11;100414.13;5011910;28;20061;-49
2022/04/04 02:40:46;;;;;;;12.35;10.60;;;;;;;3.75;65.71;100406.94;5005291;28;20058;-50
2022/04/04 02:43:13;;;;;;;12.73;11.20;;;;;;;3.73;66.01;100402.81;4998636;28;20050;-50
2022/04/04 02:45:41;;;;;;;11.57;10.15;;;;;;;3.60;66.58;100393.94;4998669;28;20061;-51
2022/04/04 02:48:09;;;;;;;13.48;10.73;;;;;;;3.65;66.11;100391.22;4992601;28;20058;-51
2022/04/04 02:50:38;;;;;;;15.20;10.45;;;;;;;3.56;66.80;100387.31;4994045;28;20061;-49
2022/04/04 02:53:08;;;;;;;13.90;10.43;;;;;;;3.57;66.37;100383.47;4992664;28;20058;-52
2022/04/04 02:58:20;;;;;;;11.63;9.65;;;;;;;3.62;66.35;100380.72;4998746;28;20379;-53
2022/04/04 03:00:47;;;;;;;13.75;10.57;;;;;;;3.62;66.66;100375.22;5003855;28;20054;-50
2022/04/04 03:03:15;;;;;;;13.20;9.80;;;;;;;3.59;67.17;100374.94;4996002;28;20061;-49
2022/04/04 03:05:44;;;;;;;12.35;9.95;;;;;;;3.59;67.08;100377.69;5006876;28;20046;-49
2022/04/04 03:08:12;;;;;;;12.82;9.70;;;;;;;3.62;67.12;100372.47;5011789;28;20487;-52
2022/04/04 03:10:39;;;;;;;10.93;8.25;;;;;;;3.59;66.67;100364.75;5011792;28;20060;-49
2022/04/04 03:13:06;;;;;;;11.98;9.27;;;;;;;3.58;66.91;100360.34;5011972;28;20073;-49
2022/04/04 03:15:36;;;;;;;13.90;9.32;;;;;;;3.65;67.14;100366.44;5011358;28;20053;-49
2022/04/04 03:18:05;;;;;;;11.70;9.15;;;;;;;3.65;66.55;100351.81;5010898;28;20506;-52
2022/04/04 03:20:33;;;;;;;11.47;8.73;;;;;;;3.68;66.31;100348.53;5011730;28;20379;-49
2022/04/04 03:23:02;;;;;;;15.90;9.05;;;;;;;3.72;66.70;100344.13;5011865;28;20061;-52
2022/04/04 03:25:30;;;;;;;11.25;8.70;;;;;;;3.74;65.90;100343.84;5011675;28;20073;-50
2022/04/04 03:27:58;;;;;;;12.98;8.55;;;;;;;3.75;66.21;100337.25;5012205;28;20399;-52
2022/04/04 03:30:27;;;;;;;11.38;8.88;;;;;;;3.75;66.21;100335.31;5008793;28;20058;-49
2022/04/04 03:32:57;;;;;;;11.52;8.73;;;;;;;3.71;66.12;100333.38;4992782;28;20054;-49
2022/04/04 03:35:26;;;;;;;10.35;8.00;;;;;;;3.70;66.23;100321.53;4992149;28;20054;-50
2022/04/04 03:37:55;;;;;;;22.23;17.60;;;;;;;3.79;66.19;100313.56;4992065;28;20058;-49
2022/04/04 03:40:24;;;;;;;13.75;9.55;;;;;;;3.74;66.24;100314.38;4992239;28;20046;-49
2022/04/04 03:42:53;;;;;;;11.48;8.85;;;;;;;3.81;65.71;100311.38;5006765;28;20046;-52
2022/04/04 03:45:22;;;;;;;10.70;8.43;;;;;;;3.81;65.69;100306.66;5011645;28;20053;-51
2022/04/04 03:47:49;;;;;;;11.57;8.63;;;;;;;3.88;65.47;100300.88;5011296;28;20054;-49
2022/04/04 03:50:18;;;;;;;11.10;8.32;;;;;;;3.81;65.34;100292.91;5012491;28;20054;-52
2022/04/04 03:52:48;;;;;;;13.25;9.23;;;;;;;3.86;65.64;100297.59;5015490;28;20411;-50
2022/04/04 03:55:17;;;;;;;11.90;8.27;;;;;;;3.86;65.42;100286.56;5006000;28;20443;-49
2022/04/04 03:57:48;;;;;;;10.85;8.23;;;;;;;3.95;64.88;100284.09;5015103;28;20061;-50
2022/04/04 04:00:16;;;;;;;11.25;8.32;;;;;;;3.97;64.94;100282.72;5013328;28;20371;-54
2022/04/04 04:02:44;;;;;;;11.23;8.57;;;;;;;4.01;64.42;100283.84;5007689;28;20054;-50
2022/04/04 04:05:11;;;;;;;13.05;8.30;;;;;;;4.13;64.18;100268.94;5001098;28;20050;-52
2022/04/04 04:07:39;;;;;;;10.73;7.57;;;;;;;4.13;63.96;100277.19;5007633;28;20054;-50
2022/04/04 04:10:07;;;;;;;9.18;7.60;;;;;;;4.15;64.07;100267.56;5007067;28;20050;-52
2022/04/04 04:12:34;;;;;;;9.98;7.60;;;;;;;4.20;63.72;100261.19;5014655;28;20513;-52
2022/04/04 04:15:03;;;;;;;10.50;7.50;;;;;;;4.20;64.14;100250.16;5014923;28;20041;-50
2022/04/04 04:17:31;;;;;;;11.02;7.70;;;;;;;4.25;63.78;100258.44;5013939;28;20050;-51
2022/04/04 04:22:45;;;;;;;12.25;8.52;;;;;;;4.25;63.67;100247.44;5001015;28;20084;-50
2022/04/04 04:25:14;;;;;;;12.07;8.15;;;;;;;4.22;63.14;100250.72;4995281;28;20437;-51
2022/04/04 04:27:42;;;;;;;10.80;8.52;;;;;;;4.25;63.18;100239.16;4999666;28;20061;-51
2022/04/04 04:30:13;;;;;;;11.63;8.27;;;;;;;4.25;63.17;100225.38;4996211;28;20070;-49
2022/04/04 04:32:42;;;;;;;14.35;8.73;;;;;;;4.31;63.12;100224.25;5013047;28;20057;-50
2022/04/04 04:35:11;;;;;;;11.77;9.23;;;;;;;4.33;62.98;100222.06;5010476;28;20054;-52
2022/04/04 04:37:39;;;;;;;11.45;9.02;;;;;;;4.40;62.82;100217.06;5006428;28;20058;-52
2022/04/04 04:40:07;;;;;;;12.40;8.23;;;;;;;4.39;62.32;100217.31;4995164;28;20054;-49
2022/04/04 04:42:35;;;;;;;10.43;8.60;;;;;;;4.33;62.01;100218.47;4994649;28;20510;-51
2022/04/04 04:45:04;;;;;;;12.18;8.48;;;;;;;4.32;62.31;100206.59;5006796;28;20125;-50
2022/04/04 04:47:33;;;;;;;;;;;;;;;4.22;62.16;100212.97;5002453;28;20077;-54
2022/04/04 04:50:01;;;;;;;10.98;8.40;;;;;;;4.22;61.96;100190.94;4996054;28;19929;-51
2022/04/04 04:52:29;;;;;;;12.82;8.90;;;;;;;4.24;61.48;100215.44;4994698;28;20053;-51
2022/04/04 04:55:02;;;;;;;12.90;9.20;;;;;;;4.18;61.48;100184.31;4995217;28;20398;-49
2022/04/04 04:57:29;;;;;;;14.25;9.95;;;;;;;4.06;61.84;100186.53;5010022;28;20506;-54
2022/04/04 04:59:57;;;;;;;12.20;8.95;;;;;;;4.10;61.90;100173.84;5000255;28;20503;-49
2022/04/04 05:02:25;;;;;;;12.98;9.68;;;;;;;4.15;61.67;100173.00;5005456;28;20498;-50
2022/04/04 05:04:54;;;;;;;13.43;10.38;;;;;;;4.07;61.93;100161.47;5012565;28;20414;-49
2022/04/04 05:07:21;;;;;;;11.52;9.35;;;;;;;4.16;61.93;100158.97;5013545;28;20076;-49
2022/04/04 05:09:49;;;;;;;14.23;9.90;;;;;;;4.13;61.23;100156.75;5011470;28;20062;-51
2022/04/04 05:12:16;;;;;;;11.40;9.20;;;;;;;4.19;61.61;100157.56;5000120;28;21564;-49
2022/04/04 05:14:44;;;;;;;14.07;9.60;;;;;;;4.25;60.47;100156.44;5006794;28;20392;-49
2022/04/04 05:17:11;;;;;;;11.95;9.63;;;;;;;4.32;60.44;100150.63;5003886;28;20057;-50
2022/04/04 05:19:38;;;;;;;11.05;8.88;;;;;;;4.35;60.27;100153.66;5013172;28;20068;-52
2022/04/04 05:22:08;;;;;;;13.00;9.55;;;;;;;4.43;59.94;100142.06;5011688;28;20379;-51
2022/04/04 05:24:36;;;;;;;10.63;8.77;;;;;;;4.46;59.60;100141.47;5006597;28;20403;-52
2022/04/04 05:27:03;;;;;;;12.95;9.70;;;;;;;4.45;59.67;100139.00;4993982;28;20134;-51
2022/04/04 05:29:30;;;;;;;13.57;9.43;;;;;;;4.38;59.67;100142.06;5007403;28;20471;-50
2022/04/04 05:31:58;;;;;;;11.05;8.65;;;;;;;4.38;59.72;100150.34;5000126;28;20651;-49
2022/04/04 05:34:26;;;;;;;11.60;8.75;;;;;;;4.45;59.58;100137.09;5007022;28;20053;-50
2022/04/04 05:36:54;;;;;;;13.10;9.20;;;;;;;4.39;59.22;100146.47;5001753;28;20057;-50
2022/04/04 05:39:23;;;;;;;16.95;9.18;;;;;;;4.30;59.54;100142.63;5013585;28;20058;-50
2022/04/04 05:41:52;;;;;;;13.43;8.67;;;;;;;4.41;59.05;100132.38;5007585;28;20061;-50
2022/04/04 05:44:19;;;;;;;11.23;8.40;;;;;;;4.35;58.83;100134.38;5008834;28;20508;-52
2022/04/04 05:46:47;;;;;;;12.10;8.25;;;;;;;4.39;59.11;100134.59;5011652;28;20443;-52
2022/04/04 05:49:14;;;;;;;12.45;8.88;;;;;;;4.35;59.04;100133.53;5011613;28;20391;-51
2022/04/04 05:51:42;;;;;;;14.90;9.35;;;;;;;4.38;59.30;100139.31;5012703;28;20540;-51
2022/04/04 05:54:10;;;;;;;12.82;9.23;;;;;;;4.37;58.66;100128.56;5012175;28;20050;-50
2022/04/04 05:56:39;;;;;;;13.18;8.45;;;;;;;4.41;58.25;100111.19;5007452;28;20391;-51
2022/04/04 05:59:07;;;;;;;10.23;7.82;;;;;;;4.35;58.62;100117.00;5011560;28;20054;-54
2022/04/04 06:01:35;;;;;;;12.77;8.82;;;;;;;4.38;59.02;100106.22;5008974;28;20050;-50
2022/04/04 06:04:03;;;;;;;12.45;8.52;;;;;;;4.54;58.28;100098.72;4992803;28;20069;-52
2022/04/04 06:06:30;;;;;;;12.77;7.60;;;;;;;4.63;57.72;100096.19;5007516;28;20054;-51
2022/04/04 06:08:58;;;;;;;10.00;8.02;;;;;;;4.75;57.37;100098.59;5012961;28;20064;-50
2022/04/04 06:11:25;;;;;;;12.35;8.10;;;;;;;4.83;57.25;100100.72;5011712;28;20075;-54
2022/04/04 06:13:54;;;;;;;12.73;8.23;;;;;;;4.91;57.14;100093.81;4999265;28;20490;-53
2022/04/04 06:16:21;;;;;;;14.50;8.95;;;;;;;5.07;56.66;100078.78;5007004;28;20046;-49
2022/04/04 06:18:53;;;;;;;13.00;8.18;;;;;;;5.21;56.37;100081.72;4995470;28;20065;-51
2022/04/04 06:21:22;;;;;;;10.65;8.23;;;;;;;5.12;56.18;100075.97;4996565;28;20046;-52
2022/04/04 06:23:50;;;;;;;12.88;8.05;;;;;;;5.12;56.35;100075.16;5002795;28;20055;-53
2022/04/04 06:26:17;;;;;;;11.07;7.18;;;;;;;5.09;56.53;100060.00;5012658;28;20050;-51
2022/04/04 06:28:44;;;;;;;12.52;7.40;;;;;;;5.25;56.25;100058.78;5008248;28;20049;-52
2022/04/04 06:31:13;;;;;;;12.48;7.63;;;;;;;5.20;55.58;100072.59;5002719;28;20053;-53
2022/04/04 06:33:41;;;;;;;10.27;7.40;;;;;;;5.37;55.60;100060.31;5012784;28;20050;-52
2022/04/04 06:36:09;;;;;;;13.32;8.70;;;;;;;5.38;54.97;100053.69;5012305;28;20057;-55
2022/04/04 06:38:36;;;;;;;10.93;7.28;;;;;;;5.49;54.93;100050.53;4998470;28;20050;-55
2022/04/04 06:41:04;;;;;;;13.30;7.75;;;;;;;5.66;54.70;100036.28;5006116;28;20522;-51
2022/04/04 06:43:32;;;;;;;13.57;8.48;;;;;;;5.85;54.05;100030.00;5005858;28;20383;-49
2022/04/04 06:46:00;;;;;;;11.18;7.38;;;;;;;5.97;53.17;100038.72;5009479;28;20121;-51
2022/04/04 06:48:29;;;;;;;10.85;6.63;;;;;;;6.08;53.44;100020.06;5000891;28;20129;-54
2022/04/04 06:50:59;;;;;;;9.02;5.90;;;;;;;6.14;51.77;100013.38;5012114;28;20061;-50
2022/04/04 06:53:26;;;;;;;8.32;6.00;;;;;;;6.30;51.58;100022.31;5000015;28;20060;-53
2022/04/04 06:55:53;;;;;;;9.57;6.22;;;;;;;6.35;51.75;100004.81;4999456;28;20060;-49
2022/04/04 06:58:21;;;;;;;8.88;5.68;;;;;;;6.43;50.93;100009.69;4994816;28;20465;-48
2022/04/04 07:00:48;;;;;;;7.20;5.88;;;;;;;6.55;50.68;100001.75;5003229;28;20560;-54
2022/04/04 07:03:16;;;;;;;8.15;6.13;;;;;;;6.37;50.67;100003.38;5007420;28;20510;-51
2022/04/04 07:05:44;;;;;;;9.15;5.75;;;;;;;6.71;51.19;99999.56;4998220;28;20049;-51
2022/04/04 07:08:12;;;;;;;6.93;5.47;;;;;;;6.65;49.91;99998.00;5005108;28;20053;-51
2022/04/04 07:10:39;;;;;;;7.55;5.35;;;;;;;6.71;50.04;99980.19;5010802;28;20054;-51
2022/04/04 07:13:07;;;;;;;8.77;5.53;;;;;;;6.74;50.19;99981.53;5009141;28;20049;-50
2022/04/04 07:15:35;;;;;;;8.20;6.07;;;;;;;6.90;49.48;99985.69;5007243;28;20434;-49
2022/04/04 07:18:03;;;;;;;8.90;5.45;;;;;;;6.85;49.91;99972.78;4991936;28;20058;-50
2022/04/04 07:20:30;;;;;;;12.38;6.07;;;;;;;6.78;49.72;99974.28;5007313;28;20061;-54
2022/04/04 07:23:00;;;;;;;10.07;6.22;;;;;;;6.80;49.92;99964.53;5011330;28;20073;-50
2022/04/04 07:25:29;;;;;;;7.65;5.53;;;;;;;6.81;50.13;99957.06;5014132;28;20060;-52
2022/04/04 07:27:56;;;;;;;6.73;5.50;;;;;;;6.67;50.50;99966.13;5014466;28;20053;-54
2022/04/04 07:30:24;;;;;;;7.53;5.28;;;;;;;6.90;50.07;99960.78;5012936;28;20057;-52
2022/04/04 07:32:52;;;;;;;6.65;5.22;;;;;;;7.64;49.47;99946.97;5013748;28;20046;-52
2022/04/04 07:35:21;;;;;;;7.13;5.82;;;;;;;8.05;47.28;99939.75;5012461;28;20050;-54
2022/04/04 07:37:50;;;;;;;8.02;5.95;;;;;;;8.69;46.58;99931.38;5003233;28;20420;-49
2022/04/04 07:40:21;;;;;;;7.85;5.43;;;;;;;9.35;44.71;99918.53;5005558;28;20054;-51
2022/04/04 07:42:49;;;;;;;8.48;6.03;;;;;;;9.57;44.36;99913.22;5013029;28;20149;-54
2022/04/04 07:45:18;;;;;;;8.27;5.55;;;;;;;9.34;44.43;99894.69;5014229;28;20050;-49
2022/04/04 07:47:47;;;;;;;10.85;5.60;;;;;;;8.90;44.87;99890.84;5003338;28;20403;-51
2022/04/04 07:50:15;;;;;;;7.32;5.90;;;;;;;9.01;45.00;99887.78;5013689;28;20052;-49
2022/04/04 07:52:43;;;;;;;9.05;6.68;;;;;;;8.67;46.05;99883.66;5010745;28;20073;-52
2022/04/04 07:55:11;;;;;;;8.13;5.78;;;;;;;8.81;46.45;99878.84;5013934;28;20050;-49
2022/04/04 07:57:41;;;;;;;6.88;5.78;;;;;;;8.85;45.80;99884.59;5012243;28;20049;-52
2022/04/04 08:00:14;;;;;;;8.80;5.32;;;;;;;8.66;45.41;99873.69;5011492;28;20050;-50
2022/04/04 08:02:42;;;;;;;6.25;5.20;;;;;;;8.14;46.87;99896.28;5015123;28;20054;-52
2022/04/04 08:05:10;;;;;;;7.88;5.65;;;;;;;8.42;46.03;99869.28;5012468;28;20046;-52
2022/04/04 08:07:40;;;;;;;9.02;5.65;;;;;;;8.94;45.57;99861.31;5014834;28;20064;-49
2022/04/04 08:10:08;;;;;;;8.75;5.53;;;;;;;9.56;44.06;99879.06;5013678;28;20054;-54
2022/04/04 08:12:37;;;;;;;8.43;6.35;;;;;;;9.65;43.58;99849.31;5015121;28;20056;-52
2022/04/04 08:15:06;;;;;;;7.07;4.93;;;;;;;9.78;43.31;99843.94;5012675;28;20065;-52
2022/04/04 08:17:33;;;;;;;7.22;5.57;;;;;;;10.02;43.25;99847.06;5013567;28;20050;-50
2022/04/04 08:20:00;;;;;;;7.43;6.50;;;;;;;9.35;43.77;99856.59;5014971;28;20054;-52
2022/04/04 08:22:28;;;;;;;8.07;5.30;;;;;;;9.31;44.35;99834.16;5006452;28;20053;-51
2022/04/04 08:24:55;;;;;;;7.95;5.68;;;;;;;9.12;44.70;99836.38;4994856;28;20101;-52
2022/04/04 08:27:23;;;;;;;6.78;5.43;;;;;;;9.54;44.03;99831.28;5011286;28;20065;-54
2022/04/04 08:29:51;;;;;;;8.77;5.68;;;;;;;9.16;44.33;99856.84;5013998;28;20054;-51
2022/04/04 08:32:20;;;;;;;8.32;5.65;;;;;;;9.42;44.24;99820.78;5013390;28;20057;-50
2022/04/04 08:34:48;;;;;;;6.57;5.43;;;;;;;9.11;44.73;99827.22;5007604;28;20054;-52
2022/04/04 08:37:15;;;;;;;8.93;5.43;;;;;;;9.09;44.71;99812.00;5013414;28;20117;-54
2022/04/04 08:39:44;;;;;;;7.07;5.75;;;;;;;8.96;45.09;99810.97;5014242;28;20045;-54
2022/04/04 08:42:13;;;;;;;8.52;5.22;;;;;;;8.90;45.43;99799.19;5012733;28;20072;-51
2022/04/04 08:44:41;;;;;;;6.50;4.97;;;;;;;8.90;45.25;99807.53;5012570;28;20053;-50
2022/04/04 08:47:09;;;;;;;7.00;5.78;;;;;;;8.98;44.80;99792.03;5002148;28;20042;-51
2022/04/04 08:49:40;;;;;;;6.55;5.40;;;;;;;9.02;45.43;99781.09;5005150;28;20049;-51
2022/04/04 08:52:08;;;;;;;7.53;5.50;;;;;;;9.25;44.64;99785.44;5010875;28;20526;-54
2022/04/04 08:54:35;;;;;;;8.00;5.57;;;;;;;9.02;44.66;99786.66;5014071;28;20422;-51
2022/04/04 08:57:03;;;;;;;7.03;5.03;;;;;;;9.00;44.23;99803.63;5012504;28;20041;-52
2022/04/04 08:59:30;;;;;;;6.95;5.43;;;;;;;9.24;44.16;99767.13;5011374;28;20058;-53
2022/04/04 09:01:58;;;;;;;10.05;4.68;;;;;;;9.63;43.21;99764.56;5009920;28;20053;-49
2022/04/04 09:04:25;;;;;;;7.20;4.97;;;;;;;9.78;43.39;99758.53;5009797;28;20050;-50
2022/04/04 09:06:56;;;;;;;6.35;4.97;;;;;;;9.31;43.79;99767.47;5013085;28;20068;-53
2022/04/04 09:09:26;;;;;;;9.80;5.18;;;;;;;9.42;44.01;99769.94;5010660;28;20670;-51
2022/04/04 09:12:05;;;;;;;6.18;4.82;;;;;;;9.29;44.94;99755.84;5013724;28;20483;-52
2022/04/04 09:14:37;;;;;;;8.48;5.45;;;;;;;9.49;44.13;99742.47;5002921;28;20058;-49
2022/04/04 09:17:09;;;;;;;7.72;5.07;;;;;;;9.10;44.92;99764.47;5012337;28;20057;-55
2022/04/04 09:19:36;;;;;;;6.07;5.00;;;;;;;9.09;45.23;99745.31;5012816;28;20521;-50
2022/04/04 09:22:09;;;;;;;7.35;5.30;;;;;;;9.13;46.18;99729.66;5012241;28;20411;-52
2022/04/04 09:24:48;;;;;;;7.95;4.80;;;;;;;9.10;45.33;99733.91;5012719;28;20414;-54
2022/04/04 09:27:21;;;;;;;8.10;6.00;;;;;;;9.07;45.61;99726.22;5001789;28;20403;-52
2022/04/04 09:29:51;;;;;;;11.63;5.07;;;;;;;8.84;46.21;99755.19;5008603;28;20522;-52
2022/04/04 09:32:19;;;;;;;8.32;4.88;;;;;;;8.64;46.11;99726.88;5012625;28;20053;-53
2022/04/04 09:35:00;;;;;;;8.20;4.95;;;;;;;8.30;47.11;99725.53;5012607;28;20061;-52
2022/04/04 09:37:30;;;;;;;7.32;4.70;;;;;;;8.37;47.02;99705.66;5012372;28;20057;-51
2022/04/04 09:40:17;;;;;;;7.43;4.80;;;;;;;8.52;46.26;99693.34;5010530;28;20052;-52
2022/04/04 09:42:57;;;;;;;8.57;5.10;;;;;;;8.80;46.36;99684.78;5012217;28;20050;-54
2022/04/04 09:45:28;;;;;;;6.15;4.63;;;;;;;8.97;46.12;99679.31;5011040;28;20058;-50
2022/04/04 09:47:57;;;;;;;5.60;5.00;;;;;;;8.99;45.61;99673.41;4995297;28;20054;-51
2022/04/04 09:50:41;;;;;;;7.55;4.93;;;;;;;9.09;44.92;99678.66;5011063;28;20352;-52
2022/04/04 09:53:13;;;;;;;6.53;4.75;;;;;;;9.44;44.72;99664.81;5011462;28;20371;-51
2022/04/04 09:55:43;;;;;;;7.90;4.80;;;;;;;9.34;44.84;99652.03;5012561;28;20060;-51
2022/04/04 09:58:14;;;;;;;7.20;4.97;;;;;;;9.13;44.51;99668.53;5013137;28;20133;-49
2022/04/04 10:00:44;;;;;;;8.13;4.60;;;;;;;8.89;45.39;99652.31;5010494;28;20054;-53
2022/04/04 10:03:12;;;;;;;;;;;;;;;8.70;45.60;99667.28;5011872;28;20065;-50
2022/04/04 10:05:42;;;;;;;7.15;5.05;;;;;;;8.85;45.92;99648.56;5005990;28;19922;-52
2022/04/04 10:08:14;;;;;;;6.22;4.55;;;;;;;8.94;45.83;99664.09;5004112;28;20049;-50
2022/04/04 10:10:43;;;;;;;6.10;4.43;;;;;;;8.96;44.18;99654.63;5007742;28;20050;-53
2022/04/04 10:13:12;;;;;;;7.90;4.80;;;;;;;9.07;44.32;99630.94;5012177;28;20045;-51
2022/04/04 10:15:40;;;;;;;5.60;4.35;;;;;;;8.89;44.71;99644.81;5010006;28;20490;-49
2022/04/04 10:18:08;;;;;;;7.85;4.88;;;;;;;8.80;45.42;99621.75;5002888;28;20072;-50
2022/04/04 10:20:36;;;;;;;8.38;4.97;;;;;;;8.68;45.30;99632.66;5003820;28;20057;-52
2022/04/04 10:23:05;;;;;;;6.40;4.60;;;;;;;8.46;46.35;99616.91;5004324;28;20065;-50
2022/04/04 10:25:35;;;;;;;6.47;4.43;;;;;;;8.53;47.19;99650.59;4999953;28;20054;-50
2022/04/04 10:28:02;;;;;;;;;;;;;;;8.85;47.70;99623.56;5001584;28;20470;-51
2022/04/04 10:30:33;;;;;;;5.90;4.80;;;;;;;8.85;48.26;99643.81;5007510;28;19929;-50
2022/04/04 10:33:00;;;;;;;7.38;5.05;;;;;;;9.00;48.36;99644.50;5002374;28;20065;-49
2022/04/04 10:35:30;;;;;;;6.35;4.80;;;;;;;8.57;50.07;99647.97;5009479;28;20056;-48
2022/04/04 10:37:59;;;;;;;9.25;5.85;;;;;;;8.28;51.86;99661.22;5007694;28;20054;-51
2022/04/04 10:40:29;;;;;;;6.38;5.13;;;;;;;8.09;55.39;99655.91;5000419;28;20050;-47
2022/04/04 10:43:20;;;;;;;7.97;6.03;;;;;;;7.82;56.10;99628.34;5005833;28;20427;-47
2022/04/04 10:45:52;;;;;;;8.60;6.07;;;;;;;7.86;57.04;99627.38;5004760;28;20117;-53
2022/04/04 10:48:21;;;;;;;12.65;6.70;;;;;;;7.60;58.80;99632.78;5011731;28;20045;-49
2022/04/04 10:50:48;;;;;;;8.90;6.68;;;;;;;7.40;60.60;99616.66;4998982;28;20053;-51
2022/04/04 10:53:16;;;;;;;10.23;6.57;;;;;;;7.36;62.00;99623.94;5010281;28;20065;-51
2022/04/04 10:55:52;;;;;;;11.02;7.93;;;;;;;7.16;64.20;99615.00;5010439;28;20064;-49
2022/04/04 10:58:25;;;;;;;10.35;8.15;;;;;;;7.09;65.55;99601.56;5007146;28;20042;-48
2022/04/04 11:01:07;;;;;;;9.80;7.70;;;;;;;6.81;64.55;99613.84;5009831;28;20407;-48
2022/04/04 11:03:37;;;;;;;10.93;7.60;;;;;;;6.77;66.05;99599.81;5008309;28;20054;-48
2022/04/04 11:09:11;;;;;;;13.82;8.70;;;;;;;6.58;68.03;99602.69;5007132;28;19925;-50
2022/04/04 11:11:48;;;;;;;17.55;11.80;;;;;;;5.85;74.38;99596.09;5008892;28;20053;-52
2022/04/04 11:14:17;;;;;;;16.42;10.50;;;;;;;5.83;74.40;99595.56;5004268;28;20057;-49
2022/04/04 11:17:41;;;;;;;20.50;10.70;;;;;;;5.66;76.92;99616.31;5005519;28;20065;-48
2022/04/04 11:20:32;;;;;;;20.38;13.95;;;;;;;5.02;80.42;99610.44;5003398;28;20046;-50
2022/04/04 11:23:04;;;;;;;32.65;19.95;;;;;;;4.83;84.89;99615.13;5008663;28;20084;-51
2022/04/04 11:25:34;;;;;;;24.35;16.77;;;;;;;4.78;86.92;99613.25;5011368;28;20064;-48
2022/04/04 11:28:03;;;;;;;26.00;15.45;;;;;;;4.61;86.85;99604.69;5006651;28;20043;-50
2022/04/04 11:30:32;;;;;;;28.20;19.95;;;;;;;4.48;88.30;99601.53;5005569;28;20055;-49
2022/04/04 11:32:59;;;;;;;23.13;17.43;;;;;;;4.32;87.88;99602.81;5009950;28;20045;-50
2022/04/04 11:35:30;;;;;;;28.55;19.33;;;;;;;4.39;89.67;99595.03;5010193;28;20064;-53
2022/04/04 11:38:00;;;;;;;22.80;15.93;;;;;;;4.30;87.55;99580.25;5010475;28;20053;-47
2022/04/04 11:40:33;;;;;;;30.55;18.13;;;;;;;4.16;88.57;99591.19;5010217;28;20053;-49
2022/04/04 11:43:03;;;;;;;29.08;18.58;;;;;;;4.07;90.08;99585.50;5010008;28;20053;-52
2022/04/04 11:45:36;;;;;;;40.60;24.25;;;;;;;4.04;91.52;99582.50;5011182;28;20265;-51
2022/04/04 11:48:06;;;;;;;38.05;22.13;;;;;;;3.95;92.92;99568.53;5008760;28;20050;-49
2022/04/04 11:50:37;;;;;;;61.40;29.08;;;;;;;4.01;94.90;99572.88;5011159;28;20442;-52
2022/04/04 11:53:07;;;;;;;32.80;20.70;;;;;;;3.98;95.18;99565.19;5011369;28;20061;-50